Latest Weather Observations for Cape Nelson

IDV60801

Issued at 6:02 pm EDT Friday 27 February 2015 (issued every 30 minutes, with the page automatically refreshed every 10 minutes)

About weather observations | Map of weather stations | Latest weather observations for VIC | Other Formats
Station Details ID: 090184 Name: CAPE NELSON LIGHTHOUSE Lat: -38.43 Lon: 141.54 Height: 45.4 m
Data from the previous 72 hours. | See also: Recent months at Cape Nelson
Date/Time
EDT
Temp
°C
App
Temp
°C
Dew
Point
Rel
Hum
%
Delta-T
°C
Wind Press
QNH
hPa
Press
MSL
hPa
Rain
since 9 am
mm
Dir
 
Spd
km/h
Gust
km/h
Spd
kts
Gust
kts
27/06:00pm 17.0 14.8 12.1 73 2.7 SSE 15 17 8 9 1010.6 1010.5 0.0
27/05:30pm 17.3 16.2 11.8 70 3.0 SE 9 15 5 8 1010.5 1010.4 0.0
27/05:00pm 17.5 16.0 12.0 70 3.0 ESE 11 15 6 8 1010.1 1010.0 0.0
27/04:30pm 18.0 15.8 12.2 69 3.2 SE 15 20 8 11 1010.1 1010.0 0.0
27/04:00pm 18.6 15.8 12.6 68 3.4 SSE 19 22 10 12 1010.5 1010.4 0.0
27/03:30pm 19.9 17.6 12.9 64 4.0 SE 17 22 9 12 1010.6 1010.5 0.0
27/03:00pm 19.5 17.8 12.5 64 3.9 SE 13 19 7 10 1010.8 1010.7 0.0
27/02:30pm 19.7 17.3 12.7 64 3.9 SE 17 20 9 11 1011.1 1011.0 0.0
27/02:00pm 19.0 16.2 12.5 66 3.6 SSE 19 22 10 12 1011.8 1011.7 0.0
27/01:30pm 19.5 17.1 12.7 65 3.8 SSE 17 20 9 11 1012.2 1012.1 0.0
27/01:00pm 19.8 17.5 13.0 65 3.9 SSE 17 20 9 11 1012.3 1012.2 0.0
27/12:30pm 19.3 18.3 13.5 69 3.3 SE 11 17 6 9 1012.0 1011.9 0.0
27/12:00pm 17.6 16.0 12.7 73 2.7 ESE 13 19 7 10 1012.0 1011.9 0.0
27/11:30am 18.1 16.5 12.8 71 3.0 SE 13 17 7 9 1012.2 1012.1 0.0
27/11:00am 18.2 16.6 12.9 71 3.0 SSE 13 17 7 9 1012.6 1012.5 0.0
27/10:30am 19.9 18.8 13.1 65 3.9 ESE 11 13 6 7 1012.2 1012.1 0.0
27/10:00am 18.9 18.1 12.9 68 3.4 ESE 9 13 5 7 1011.9 1011.8 0.0
27/09:30am 19.0 18.5 12.5 66 3.6 ESE 7 9 4 5 1012.1 1012.0 0.0
27/09:00am 17.7 17.1 12.2 70 3.0 ESE 7 9 4 5 1011.7 1011.6 0.0
27/08:30am 17.0 15.9 12.1 73 2.7 ESE 9 11 5 6 1011.4 1011.3 0.0
27/08:00am 15.9 14.9 12.3 79 2.0 E 9 11 5 6 1011.3 1011.2 0.0
27/07:30am 14.9 14.2 12.0 83 1.6 SSE 7 13 4 7 1011.4 1011.3 0.0
27/07:00am 15.2 13.8 12.1 82 1.7 SE 11 15 6 8 1010.7 1010.6 0.0
27/06:30am 15.3 13.5 12.2 82 1.7 SE 13 20 7 11 1010.5 1010.4 0.0
27/06:00am 15.4 13.3 12.3 82 1.7 SSE 15 19 8 10 1010.6 1010.5 0.0
27/05:30am 15.5 13.1 12.6 83 1.6 SE 17 20 9 11 1010.4 1010.3 0.0
27/05:00am 15.7 14.1 12.8 83 1.6 SSE 13 19 7 10 1010.9 1010.8 0.0
27/04:30am 15.9 14.4 13.2 84 1.5 SSE 13 15 7 8 1011.0 1010.9 0.0
27/04:00am 16.0 15.1 13.7 86 1.3 SE 11 15 6 8 1010.9 1010.8 0.0
27/03:30am 16.3 15.5 14.0 86 1.3 ESE 11 17 6 9 1010.7 1010.6 0.0
27/03:00am 16.3 14.7 14.0 86 1.3 SE 15 20 8 11 1010.9 1010.8 0.0
27/02:30am 16.5 15.1 14.5 88 1.1 SE 15 20 8 11 1011.4 1011.3 0.0
27/02:00am 16.7 16.7 15.1 90 0.9 ESE 9 13 5 7 1011.8 1011.7 0.0
27/01:30am 16.6 16.4 14.8 89 1.0 SE 9 11 5 6 1012.1 1012.0 0.0
27/01:00am 16.5 16.7 14.7 89 1.0 ESE 7 11 4 6 1012.1 1012.0 0.0
27/12:30am 16.6 16.4 14.8 89 1.0 SE 9 13 5 7 1012.4 1012.3 0.0
27/12:00am 16.7 16.2 14.9 89 1.0 SE 11 15 6 8 1012.4 1012.3 0.0
 
Date/Time
EDT
Temp
°C
App
Temp
°C
Dew
Point
Rel
Hum
%
Delta-T
°C
Wind Press
QNH
hPa
Press
MSL
hPa
Rain
since 9 am
mm
Dir
 
Spd
km/h
Gust
km/h
Spd
kts
Gust
kts
26/11:30pm 16.7 15.1 15.1 90 0.9 SSE 17 20 9 11 1012.2 1012.1 0.0
26/11:00pm 17.1 16.1 15.6 91 0.9 SSE 15 19 8 10 1012.5 1012.4 0.0
26/10:30pm 17.0 16.0 15.5 91 0.9 SSE 15 20 8 11 1012.4 1012.3 0.0
26/10:00pm 17.0 15.4 15.9 93 0.6 SSE 19 24 10 13 1012.2 1012.1 0.0
26/09:30pm 17.0 15.3 15.7 92 0.8 SSE 19 24 10 13 1011.8 1011.7 0.0
26/09:00pm 17.5 15.7 16.0 91 0.9 S 20 26 11 14 1011.7 1011.6 0.0
26/08:30pm 18.0 17.3 16.3 90 1.0 W 15 20 8 11 1011.7 1011.6 0.0
26/08:00pm 18.1 18.1 16.3 89 1.1 NW 11 17 6 9 1011.4 1011.3 0.0
26/07:30pm 18.0 16.5 16.2 89 1.1 W 19 22 10 12 1011.1 1011.0 0.0
26/07:00pm 18.2 17.5 16.4 89 1.1 W 15 20 8 11 1010.9 1010.8 0.0
26/06:30pm 18.0 16.0 15.6 86 1.4 W 20 26 11 14 1010.8 1010.7 0.0
26/06:00pm 18.4 17.5 15.8 85 1.5 W 15 22 8 12 1010.7 1010.6 0.0
26/05:30pm 18.4 17.4 15.6 84 1.7 W 15 24 8 13 1010.7 1010.6 0.0
26/05:00pm 18.6 17.0 14.9 79 2.2 W 17 28 9 15 1010.8 1010.7 0.0
26/04:30pm 18.6 16.7 15.1 80 2.0 W 19 24 10 13 1010.9 1010.8 0.0
26/04:00pm 18.9 16.8 14.8 77 2.4 W 19 26 10 14 1011.0 1010.9 0.0
26/03:30pm 20.1 19.0 15.3 74 2.8 W 15 20 8 11 1011.2 1011.1 0.0
26/03:00pm 20.0 18.0 15.4 75 2.7 W 20 24 11 13 1011.5 1011.4 0.0
26/02:30pm 19.8 18.6 15.0 74 2.8 W 15 24 8 13 1011.6 1011.5 0.0
26/02:00pm 19.1 17.4 14.8 76 2.5 W 17 22 9 12 1011.8 1011.7 0.0
26/01:30pm 19.5 18.3 15.0 75 2.6 W 15 20 8 11 1012.0 1011.9 0.0
26/01:00pm 19.5 18.3 15.0 75 2.6 W 15 22 8 12 1012.2 1012.1 0.0
26/12:30pm 19.3 18.0 14.8 75 2.6 W 15 20 8 11 1012.4 1012.3 0.0
26/12:00pm 18.7 16.6 14.6 77 2.4 W 19 24 10 13 1012.5 1012.4 0.0
26/11:30am 18.3 16.5 14.4 78 2.3 W 17 24 9 13 1012.6 1012.5 0.0
26/11:00am 17.8 14.9 14.1 79 2.1 W 22 28 12 15 1012.6 1012.5 0.0
26/10:30am 17.5 15.0 14.0 80 2.0 W 20 26 11 14 1012.5 1012.4 0.0
26/10:00am 17.2 14.1 13.5 79 2.1 W 22 28 12 15 1012.4 1012.3 0.0
26/09:30am 17.2 14.1 13.5 79 2.1 W 22 28 12 15 1012.2 1012.1 0.0
26/09:00am 17.3 15.2 13.6 79 2.1 W 17 24 9 13 1012.0 1011.9 0.0
26/08:30am 16.9 15.1 13.4 80 2.0 WNW 15 20 8 11 1011.6 1011.5 0.0
26/08:00am 16.6 14.5 13.7 83 1.6 WNW 17 20 9 11 1011.5 1011.4 0.0
26/07:30am 16.4 15.1 13.7 84 1.5 WNW 13 19 7 10 1011.2 1011.1 0.0
26/07:00am 16.4 14.4 13.9 85 1.4 W 17 20 9 11 1010.7 1010.6 0.0
26/06:30am 16.3 15.5 14.1 87 1.3 WNW 11 17 6 9 1010.4 1010.3 0.0
26/06:00am 16.5 15.8 14.3 87 1.3 NW 11 19 6 10 1010.4 1010.3 0.0
26/05:30am 16.7 16.1 14.7 88 1.2 NE 11 17 6 9 1010.7 1010.6 0.0
26/05:00am 16.8 16.3 15.0 89 1.0 NW 11 19 6 10 1010.1 1010.0 0.0
26/04:30am 16.9 15.6 14.9 88 1.2 W 15 20 8 11 1010.3 1010.2 0.0
26/04:00am 16.9 16.4 14.9 88 1.2 W 11 15 6 8 1010.3 1010.2 0.0
26/03:30am 16.8 16.6 14.8 88 1.2 WNW 9 13 5 7 1010.5 1010.4 0.0
26/03:00am 16.8 15.6 15.0 89 1.0 W 15 19 8 10 1010.9 1010.8 0.0
26/02:30am 16.9 17.3 15.2 90 1.0 ENE 7 9 4 5 1010.7 1010.6 0.0
26/02:00am 16.9 17.3 15.2 90 1.0 S 7 13 4 7 1010.9 1010.8 0.0
26/01:30am 16.9 16.2 15.4 91 0.9 S 13 17 7 9 1011.4 1011.3 0.0
26/01:00am 16.8 16.8 15.2 90 0.9 S 9 17 5 9 1011.6 1011.5 0.0
26/12:30am 17.1 16.9 15.6 91 0.9 S 11 17 6 9 1012.0 1011.9 0.0
26/12:00am 17.1 16.9 15.6 91 0.9 SSE 11 19 6 10 1012.3 1012.2 0.0
 
Date/Time
EDT
Temp
°C
App
Temp
°C
Dew
Point
Rel
Hum
%
Delta-T
°C
Wind Press
QNH
hPa
Press
MSL
hPa
Rain
since 9 am
mm
Dir
 
Spd
km/h
Gust
km/h
Spd
kts
Gust
kts
25/11:30pm 17.2 17.4 15.7 91 0.9 SSE 9 17 5 9 1012.6 1012.5 0.0
25/11:00pm 17.1 16.8 15.4 90 1.0 S 11 19 6 10 1013.0 1012.9 0.0
25/10:30pm 17.3 15.5 15.6 90 1.0 S 19 28 10 15 1012.9 1012.8 0.0
25/10:00pm 17.3 17.1 15.8 91 0.9 S 11 17 6 9 1013.0 1012.9 0.0
25/09:30pm 17.4 16.8 15.7 90 1.0 SSW 13 17 7 9 1012.7 1012.6 0.0
25/09:00pm 17.4 16.4 15.6 89 1.1 SSW 15 19 8 10 1012.5 1012.4 0.0
25/08:30pm 17.6 18.0 15.4 87 1.3 SSW 7 9 4 5 1012.4 1012.3 0.0
25/08:00pm 18.2 18.9 15.5 84 1.6 SSW 6 9 3 5 1012.4 1012.3 0.0
25/07:30pm 18.4 18.4 15.3 82 1.8 SE 9 13 5 7 1011.8 1011.7 0.0
25/07:00pm 18.7 18.3 15.2 80 2.1 SSE 11 15 6 8 1012.5 1012.4 0.0
25/06:30pm 19.6 19.1 15.9 79 2.2 S 13 17 7 9 1012.7 1012.6 0.0
25/06:00pm 20.3 19.3 15.7 75 2.7 SSE 15 20 8 11 1012.7 1012.6 0.0
25/05:30pm 20.1 19.4 15.3 74 2.8 SE 13 19 7 10 1012.6 1012.5 0.0
25/05:00pm 20.4 19.0 15.6 74 2.9 SE 17 22 9 12 1012.9 1012.8 0.0
25/04:30pm 21.0 19.6 15.5 71 3.3 SE 17 20 9 11 1013.9 1013.8 0.0
25/04:00pm 20.9 19.1 15.4 71 3.3 SE 19 22 10 12 1014.2 1014.1 0.0
25/03:30pm 21.2 19.9 15.7 71 3.3 SE 17 22 9 12 1014.5 1014.4 0.0
25/03:00pm 21.0 20.4 16.6 76 2.7 SSE 15 19 8 10 1015.1 1015.0 0.0
25/02:30pm 20.5 19.3 16.1 76 2.6 SSE 17 24 9 13 1015.1 1015.0 0.0
25/02:00pm 20.4 18.8 16.4 78 2.4 SSE 20 26 11 14 1015.4 1015.3 0.0
25/01:30pm 20.0 17.8 16.0 78 2.4 SSE 22 28 12 15 1015.9 1015.8 0.0
25/01:00pm 19.7 17.1 16.0 79 2.2 SE 24 32 13 17 1016.3 1016.2 0.0
25/12:30pm 18.7 15.5 15.4 81 1.9 SSE 26 33 14 18 1016.9 1016.8 0.0
25/12:00pm 18.5 16.2 15.7 84 1.7 SSE 22 30 12 16 1017.8 1017.7 0.0
25/11:30am 17.5 14.5 14.8 84 1.6 SSE 24 33 13 18 1017.9 1017.8 0.0
25/11:00am 17.6 13.7 14.5 82 1.8 SE 28 35 15 19 1018.0 1017.9 0.0
25/10:30am 17.1 12.9 14.7 86 1.4 SE 30 39 16 21 1018.0 1017.9 0.0
25/10:00am 16.8 12.9 14.3 85 1.4 SE 28 35 15 19 1017.8 1017.7 0.0
25/09:30am 16.7 12.1 13.6 82 1.8 SE 30 41 16 22 1017.9 1017.8 0.0
25/09:00am 16.3 11.5 13.0 81 1.8 SE 30 39 16 21 1017.9 1017.8 0.0
25/08:30am 16.1 11.1 12.3 78 2.1 SE 30 41 16 22 1018.0 1017.9 0.0
25/08:00am 15.7 10.7 12.3 80 1.9 SE 30 37 16 20 1018.2 1018.1 0.0
25/07:30am 15.3 10.7 12.2 82 1.7 SE 28 35 15 19 1018.3 1018.2 0.0
25/07:00am 15.4 10.8 12.2 81 1.7 SE 28 39 15 21 1018.4 1018.3 0.0
25/06:30am 15.3 9.5 10.9 75 2.3 SSE 32 41 17 22 1018.4 1018.3 0.0
25/06:00am 15.3 9.3 10.9 75 2.3 SSE 33 43 18 23 1018.3 1018.2 0.0
25/05:30am 15.4 9.7 11.0 75 2.3 SE 32 41 17 22 1018.3 1018.2 0.0
25/05:00am 15.6 9.9 11.2 75 2.4 SE 32 43 17 23 1018.3 1018.2 0.0
25/04:30am 15.6 10.7 11.2 75 2.4 SE 28 39 15 21 1018.6 1018.5 0.0
25/04:00am 15.4 10.3 10.6 73 2.5 SE 28 35 15 19 1018.7 1018.6 0.0
25/03:30am 15.4 10.1 10.0 70 2.8 SE 28 35 15 19 1019.1 1019.0 0.0
25/03:00am 15.3 10.6 9.2 67 3.1 SE 24 39 13 21 1019.4 1019.3 0.0
25/02:30am 15.2 10.6 9.8 70 2.8 SE 24 39 13 21 1019.5 1019.4 0.0
25/02:00am 15.2 11.0 9.6 69 2.9 ESE 22 35 12 19 1019.8 1019.7 0.0
25/01:30am 15.3 10.7 9.7 69 2.9 SE 24 35 13 19 1020.4 1020.3 0.0
25/01:00am 15.2 10.2 9.6 69 2.9 SE 26 37 14 20 1020.9 1020.8 0.0
25/12:30am 15.1 10.3 8.8 66 3.2 SE 24 33 13 18 1021.1 1021.0 0.0
25/12:00am 15.1 9.9 8.8 66 3.2 SE 26 37 14 20 1021.2 1021.1 0.0
 
Date/Time
EDT
Temp
°C
App
Temp
°C
Dew
Point
Rel
Hum
%
Delta-T
°C
Wind Press
QNH
hPa
Press
MSL
hPa
Rain
since 9 am
mm
Dir
 
Spd
km/h
Gust
km/h
Spd
kts
Gust
kts
24/11:30pm 15.2 10.4 8.9 66 3.2 SE 24 35 13 19 1021.7 1021.6 0.0
24/11:00pm 15.2 9.9 8.4 64 3.4 SE 26 39 14 21 1022.0 1021.9 0.0
24/10:30pm 15.1 9.9 8.8 66 3.2 SE 26 37 14 20 1022.3 1022.2 0.0
24/10:00pm 15.3 10.1 9.0 66 3.2 SE 26 41 14 22 1022.2 1022.1 0.0
24/09:30pm 15.3 9.8 9.0 66 3.2 SE 28 37 15 20 1022.2 1022.1 0.0
24/09:00pm 15.3 9.6 8.3 63 3.5 SE 28 39 15 21 1022.2 1022.1 0.0
24/08:30pm 15.4 9.9 9.1 66 3.2 SE 28 37 15 20 1022.3 1022.2 0.0
24/08:00pm 15.7 10.1 8.9 64 3.5 SE 28 37 15 20 1022.1 1022.0 0.0
24/07:30pm 16.1 10.1 8.8 62 3.7 SE 30 39 16 21 1022.1 1022.0 0.0
24/07:00pm 16.4 10.9 9.1 62 3.8 SE 28 37 15 20 1022.0 1021.9 0.0
24/06:30pm 16.7 11.3 9.4 62 3.8 SE 28 35 15 19 1021.9 1021.8 0.0

Other Formats:

Comma delimited format used in spreadsheet applications
http://www.bom.gov.au/fwo/IDV60801/IDV60801.94826.axf

JavaScript Object Notation format (JSON) in row-major order
http://www.bom.gov.au/fwo/IDV60801/IDV60801.94826.json